Time;durP1;ratioP1;P1;durP2;ratioP2;P2;SDS_P1;SDS_P2;PMS_P1;PMS_P2;Temp;Humidity;BMP_temperature;BMP_pressure;BME280_temperature;BME280_humidity;BME280_pressure;Samples;Min_cycle;Max_cycle;Signal;HPM_P1;HPM_P2
2022/06/05 00:01:55;;;;;;;12.87;10.60;;;11.60;99.90;;;;;;5096468;28;20048;-71
2022/06/05 00:04:42;;;;;;;17.13;11.00;;;11.70;99.90;;;;;;5078351;28;20286;-71
2022/06/05 00:07:26;;;;;;;16.17;11.27;;;11.60;99.90;;;;;;5095933;28;20300;-71
2022/06/05 00:10:21;;;;;;;16.20;11.13;;;11.70;99.90;;;;;;5096309;28;20339;-71
2022/06/05 00:13:10;;;;;;;15.63;11.57;;;11.70;99.90;;;;;;5096463;28;20366;-71
2022/06/05 00:15:36;;;;;;;17.83;10.23;;;11.70;99.90;;;;;;5096267;28;20286;-71
2022/06/05 00:18:03;;;;;;;17.77;11.97;;;11.70;99.90;;;;;;5095948;28;20293;-71
2022/06/05 00:20:29;;;;;;;18.27;12.10;;;11.70;99.90;;;;;;5096185;28;20310;-71
2022/06/05 00:22:55;;;;;;;19.27;12.47;;;11.70;99.90;;;;;;5095857;28;20695;-71
2022/06/05 00:25:20;;;;;;;17.17;11.43;;;11.70;99.90;;;;;;5095653;28;20083;-71
2022/06/05 00:28:12;;;;;;;15.60;12.20;;;11.70;99.90;;;;;;5095831;28;20044;-72
2022/06/05 00:31:18;;;;;;;15.80;12.20;;;11.70;99.90;;;;;;5095925;28;20052;-71
2022/06/05 00:33:43;;;;;;;17.73;12.82;;;11.60;99.90;;;;;;5095898;28;20328;-71
2022/06/05 00:36:29;;;;;;;15.97;12.63;;;11.60;99.90;;;;;;5095219;28;20463;-71
2022/06/05 00:39:30;;;;;;;20.20;13.47;;;11.70;99.90;;;;;;5096091;28;20052;-71
2022/06/05 00:42:06;;;;;;;17.87;12.87;;;11.70;99.90;;;;;;5072969;28;20290;-71
2022/06/05 00:44:44;;;;;;;15.13;12.17;;;11.70;99.90;;;;;;5095584;28;20288;-71
2022/06/05 00:47:25;;;;;;;20.07;13.27;;;11.60;99.90;;;;;;5095536;28;20278;-71
2022/06/05 00:49:53;;;;;;;17.73;13.30;;;11.60;99.90;;;;;;5095572;28;20266;-71
2022/06/05 00:52:23;;;;;;;20.63;12.87;;;11.70;99.90;;;;;;5095140;28;20340;-71
2022/06/05 00:54:48;;;;;;;15.93;12.80;;;11.70;99.90;;;;;;5077429;28;20340;-72
2022/06/05 00:57:15;;;;;;;15.73;13.13;;;11.70;99.90;;;;;;5077077;28;20305;-71
2022/06/05 00:59:43;;;;;;;17.63;13.10;;;11.70;99.90;;;;;;5095434;28;20055;-71
2022/06/05 01:02:10;;;;;;;22.80;13.93;;;11.70;99.90;;;;;;5095143;28;20290;-71
2022/06/05 01:04:40;;;;;;;15.57;12.57;;;11.70;99.90;;;;;;5095287;28;20327;-71
2022/06/05 01:07:05;;;;;;;17.70;12.20;;;11.70;99.90;;;;;;5095034;28;20618;-72
2022/06/05 01:09:31;;;;;;;15.77;11.90;;;11.80;99.90;;;;;;5076944;28;20282;-71
2022/06/05 01:12:16;;;;;;;16.37;12.07;;;11.70;99.90;;;;;;5077192;28;20054;-71
2022/06/05 01:15:05;;;;;;;17.60;12.73;;;11.70;99.90;;;;;;5076876;28;20488;-71
2022/06/05 01:17:52;;;;;;;16.83;12.47;;;11.80;99.90;;;;;;5076906;28;20310;-71
2022/06/05 01:20:30;;;;;;;20.17;11.93;;;11.80;99.90;;;;;;5076659;28;20286;-71
2022/06/05 01:23:27;;;;;;;19.20;12.20;;;11.80;99.90;;;;;;5077280;28;20717;-71
2022/06/05 01:26:04;;;;;;;27.23;13.23;;;11.70;99.90;;;;;;5094865;28;20282;-71
2022/06/05 01:28:35;;;;;;;17.17;12.20;;;11.80;99.90;;;;;;5094718;28;20365;-71
2022/06/05 01:31:23;;;;;;;20.10;12.33;;;11.70;99.90;;;;;;5095004;28;20274;-71
2022/06/05 01:34:19;;;;;;;16.00;12.20;;;11.70;99.90;;;;;;5094609;28;20780;-71
2022/06/05 01:36:59;;;;;;;15.82;11.98;;;11.80;99.90;;;;;;5090530;28;20314;-71
2022/06/05 01:39:36;;;;;;;18.87;11.90;;;11.80;99.90;;;;;;5094511;28;20052;-71
2022/06/05 01:42:11;;;;;;;17.10;12.07;;;11.80;99.90;;;;;;5094706;28;20819;-71
2022/06/05 01:44:41;;;;;;;18.20;12.80;;;11.80;99.90;;;;;;5094435;28;20274;-71
2022/06/05 01:47:32;;;;;;;17.30;12.07;;;11.80;99.90;;;;;;5094199;28;20040;-71
2022/06/05 01:50:21;;;;;;;16.17;11.33;;;11.80;99.90;;;;;;5094481;28;20266;-71
2022/06/05 01:53:00;;;;;;;16.00;11.17;;;11.90;99.90;;;;;;5093619;28;20278;-71
2022/06/05 01:55:34;;;;;;;16.87;11.70;;;11.80;99.90;;;;;;5093847;28;20282;-71
2022/06/05 01:58:04;;;;;;;14.88;10.85;;;11.80;99.90;;;;;;5094383;28;20282;-71
2022/06/05 02:00:30;;;;;;;18.63;11.03;;;11.70;99.90;;;;;;5094036;28;20052;-71
2022/06/05 02:03:08;;;;;;;14.30;10.97;;;11.80;99.90;;;;;;5094044;28;20274;-71
2022/06/05 02:05:45;;;;;;;15.37;10.97;;;11.80;99.90;;;;;;5093876;28;20549;-71
2022/06/05 02:08:37;;;;;;;17.33;10.13;;;11.80;99.90;;;;;;5093773;28;20361;-71
2022/06/05 02:11:15;;;;;;;13.83;9.90;;;11.80;99.90;;;;;;5094159;28;20406;-71
2022/06/05 02:13:41;;;;;;;16.30;10.73;;;11.90;99.90;;;;;;5093765;28;20778;-71
2022/06/05 02:16:08;;;;;;;16.00;10.50;;;11.80;99.90;;;;;;5075768;28;20836;-72
2022/06/05 02:18:34;;;;;;;13.50;10.13;;;11.70;99.90;;;;;;5093704;28;20352;-71
2022/06/05 02:21:01;;;;;;;14.10;9.27;;;11.80;99.90;;;;;;5093858;28;20285;-71
2022/06/05 02:23:32;;;;;;;15.03;9.63;;;11.80;99.90;;;;;;5093522;28;20633;-71
2022/06/05 02:26:00;;;;;;;15.60;9.90;;;11.80;99.90;;;;;;5075781;28;20286;-71
2022/06/05 02:28:26;;;;;;;15.40;10.07;;;11.80;99.90;;;;;;5093380;28;20285;-71
2022/06/05 02:31:07;;;;;;;16.53;10.57;;;11.90;99.90;;;;;;5093479;28;20278;-71
2022/06/05 02:34:03;;;;;;;18.00;10.40;;;11.80;99.90;;;;;;5093389;28;20549;-71
2022/06/05 02:36:33;;;;;;;15.52;10.68;;;11.80;99.90;;;;;;5074827;28;20793;-71
2022/06/05 02:39:02;;;;;;;17.80;10.67;;;11.80;99.90;;;;;;5093346;28;20052;-71
2022/06/05 02:41:34;;;;;;;22.40;11.30;;;11.80;99.90;;;;;;5092983;28;20800;-71
2022/06/05 02:44:29;;;;;;;16.67;10.93;;;11.80;99.90;;;;;;5093460;28;20317;-71
2022/06/05 02:47:35;;;;;;;22.70;11.15;;;11.80;99.90;;;;;;5093489;28;20270;-71
2022/06/05 02:50:27;;;;;;;18.15;10.85;;;11.80;99.90;;;;;;5093421;28;20040;-71
2022/06/05 02:53:01;;;;;;;16.50;10.33;;;11.90;99.90;;;;;;5088241;28;20051;-71
2022/06/05 02:55:27;;;;;;;19.03;11.37;;;11.90;99.90;;;;;;5092786;28;20308;-71
2022/06/05 02:57:52;;;;;;;17.63;11.60;;;11.90;99.90;;;;;;5093058;28;20278;-71
2022/06/05 03:00:22;;;;;;;15.43;10.47;;;11.90;99.90;;;;;;5074834;28;20427;-72
2022/06/05 03:05:33;;;;;;;18.90;11.17;;;11.80;99.90;;;;;;5092786;28;20281;-71
2022/06/05 03:07:59;;;;;;;19.40;12.37;;;11.80;99.90;;;;;;5093135;28;20297;-71
2022/06/05 03:10:25;;;;;;;17.33;11.27;;;11.80;99.90;;;;;;5074661;28;20294;-71
2022/06/05 03:12:50;;;;;;;16.37;12.00;;;11.80;99.90;;;;;;5093138;28;20044;-71
2022/06/05 03:15:16;;;;;;;15.37;11.87;;;11.90;99.90;;;;;;5093391;28;20373;-71
2022/06/05 03:17:43;;;;;;;17.40;11.00;;;11.90;99.90;;;;;;5092712;28;20040;-71
2022/06/05 03:20:11;;;;;;;17.23;11.53;;;11.90;99.90;;;;;;5075143;28;20822;-71
2022/06/05 03:22:37;;;;;;;16.33;11.93;;;11.90;99.90;;;;;;5074480;28;20657;-71
2022/06/05 03:25:03;;;;;;;20.73;13.40;;;11.90;99.90;;;;;;5092675;28;20286;-71
2022/06/05 03:27:30;;;;;;;19.43;12.50;;;11.90;99.90;;;;;;5092642;28;20446;-71
2022/06/05 03:29:56;;;;;;;19.80;13.37;;;12.00;99.90;;;;;;5092814;28;20626;-71
2022/06/05 03:32:23;;;;;;;18.40;12.63;;;11.90;99.90;;;;;;5092623;28;20293;-72
2022/06/05 03:34:49;;;;;;;23.47;14.10;;;11.90;99.90;;;;;;5092896;28;20317;-71
2022/06/05 03:37:15;;;;;;;21.47;13.30;;;11.90;99.90;;;;;;5092632;28;20338;-71
2022/06/05 03:39:41;;;;;;;18.83;13.37;;;12.00;99.90;;;;;;5092240;28;20786;-71
2022/06/05 03:42:07;;;;;;;19.07;12.83;;;12.00;99.90;;;;;;5092762;28;20048;-71
2022/06/05 03:44:41;;;;;;;20.93;12.73;;;12.00;99.90;;;;;;5092505;28;20278;-71
2022/06/05 03:47:08;;;;;;;19.47;12.87;;;12.10;99.90;;;;;;5074961;28;20067;-71
2022/06/05 03:49:35;;;;;;;16.60;12.80;;;12.10;99.90;;;;;;5092300;28;20282;-71
2022/06/05 03:52:02;;;;;;;17.03;12.40;;;12.10;99.90;;;;;;5092536;28;20281;-71
2022/06/05 03:54:28;;;;;;;19.47;13.87;;;12.10;99.90;;;;;;5092254;28;20799;-71
2022/06/05 03:56:54;;;;;;;16.13;12.33;;;12.10;99.90;;;;;;5092762;28;20305;-71
2022/06/05 03:59:20;;;;;;;19.00;12.27;;;12.10;99.90;;;;;;5092547;28;20568;-71
2022/06/05 04:01:46;;;;;;;23.93;14.57;;;12.10;99.90;;;;;;5092284;28;20052;-71
2022/06/05 04:04:11;;;;;;;22.37;13.30;;;12.10;99.90;;;;;;5092493;28;20282;-71
2022/06/05 04:06:37;;;;;;;19.73;13.17;;;12.20;99.90;;;;;;5074381;28;20048;-72
2022/06/05 04:09:07;;;;;;;23.43;13.73;;;12.20;99.90;;;;;;5092481;28;20041;-71
2022/06/05 04:11:34;;;;;;;19.63;13.03;;;12.20;99.90;;;;;;5092218;28;20044;-71
2022/06/05 04:14:00;;;;;;;19.23;13.63;;;12.30;99.90;;;;;;5092082;28;20357;-71
2022/06/05 04:16:29;;;;;;;17.10;13.03;;;12.30;99.90;;;;;;5093612;28;20833;-72
2022/06/05 04:18:56;;;;;;;20.77;13.27;;;12.30;99.90;;;;;;5078060;28;20047;-71
2022/06/05 04:21:25;;;;;;;20.57;13.47;;;12.30;99.90;;;;;;5095945;28;20289;-71
2022/06/05 04:23:51;;;;;;;22.13;14.40;;;12.40;99.90;;;;;;5096438;28;20621;-71
2022/06/05 04:26:20;;;;;;;19.47;12.83;;;12.40;99.90;;;;;;5096046;28;20795;-71
2022/06/05 04:28:46;;;;;;;20.43;14.10;;;12.50;99.90;;;;;;5077855;28;20317;-71
2022/06/05 04:31:22;;;;;;;17.63;13.10;;;12.50;99.90;;;;;;5096062;28;20297;-71
2022/06/05 04:33:49;;;;;;;18.10;12.53;;;12.60;99.90;;;;;;5095549;28;20807;-71
2022/06/05 04:36:15;;;;;;;16.43;13.60;;;12.70;99.90;;;;;;5095774;28;20689;-71
2022/06/05 04:38:41;;;;;;;20.00;14.17;;;12.70;99.90;;;;;;5095450;28;20282;-71
2022/06/05 04:41:07;;;;;;;18.13;12.17;;;12.80;99.90;;;;;;5095735;28;20055;-71
2022/06/05 04:43:33;;;;;;;18.97;12.40;;;12.80;99.90;;;;;;5095389;28;20278;-71
2022/06/05 04:45:59;;;;;;;20.23;14.33;;;12.80;99.90;;;;;;5095550;28;20044;-71
2022/06/05 04:48:24;;;;;;;16.10;12.40;;;12.80;99.90;;;;;;5095557;28;20108;-71
2022/06/05 04:50:50;;;;;;;18.10;12.97;;;12.90;99.90;;;;;;5095101;28;20055;-71
2022/06/05 04:53:16;;;;;;;17.13;12.00;;;12.80;99.90;;;;;;5077619;28;20044;-71
2022/06/05 04:55:42;;;;;;;19.37;12.97;;;12.90;99.90;;;;;;5095223;28;20067;-71
2022/06/05 04:58:07;;;;;;;20.07;13.43;;;13.00;99.90;;;;;;5095350;28;20372;-71
2022/06/05 05:00:33;;;;;;;18.23;12.70;;;13.00;99.90;;;;;;5077244;28;20047;-72
2022/06/05 05:02:59;;;;;;;15.57;12.10;;;13.10;99.90;;;;;;5077350;28;20555;-72
2022/06/05 05:05:25;;;;;;;18.73;12.17;;;;;;;;;;5095273;28;20154;-71
2022/06/05 05:07:50;;;;;;;18.47;12.60;;;13.30;99.90;;;;;;5095026;28;20101;-71
2022/06/05 05:10:16;;;;;;;19.07;12.90;;;13.40;99.90;;;;;;5095246;28;20282;-71
2022/06/05 05:12:42;;;;;;;23.07;12.13;;;13.60;99.90;;;;;;5094815;28;20470;-71
2022/06/05 05:15:09;;;;;;;15.93;11.20;;;;;;;;;;5094996;28;20044;-71
2022/06/05 05:17:35;;;;;;;18.00;11.73;;;;;;;;;;5076580;28;20051;-72
2022/06/05 05:20:01;;;;;;;16.00;11.23;;;;;;;;;;5095570;28;20360;-72
2022/06/05 05:22:27;;;;;;;16.40;11.87;;;;;;;;;;5095071;28;20646;-72
2022/06/05 05:24:53;;;;;;;16.00;11.23;;;;;;;;;;5094715;28;20289;-72
2022/06/05 05:27:20;;;;;;;14.93;11.07;;;;;;;;;;5093936;28;20317;-72
2022/06/05 05:29:46;;;;;;;14.67;11.23;;;;;;;;;;5094256;28;20781;-71
2022/06/05 05:32:12;;;;;;;18.20;11.47;;;;;;;;;;5094680;28;20288;-72
2022/06/05 05:34:39;;;;;;;16.93;11.60;;;;;;;;;;5094339;28;20361;-72
2022/06/05 05:37:05;;;;;;;13.70;10.77;;;;;;;;;;5076367;28;20397;-72
2022/06/05 05:42:16;;;;;;;17.80;11.63;;;;;;;;;;5094482;28;20286;-72
2022/06/05 05:44:43;;;;;;;18.43;12.20;;;;;;;;;;5094062;28;20281;-72
2022/06/05 05:47:11;;;;;;;17.67;12.10;;;;;;;;;;5094294;28;20285;-71
2022/06/05 05:49:37;;;;;;;16.40;11.33;;;;;;;;;;5076193;28;20281;-72
2022/06/05 05:52:05;;;;;;;18.80;12.37;;;;;;;;;;5094493;28;20331;-72
2022/06/05 05:54:31;;;;;;;16.23;10.60;;;;;;;;;;5094295;28;20278;-71
2022/06/05 05:56:57;;;;;;;15.83;9.97;;;;;;;;;;5093843;28;20298;-72
2022/06/05 05:59:23;;;;;;;15.80;10.90;;;;;;;;;;5093992;28;20282;-72
2022/06/05 06:01:49;;;;;;;14.93;11.73;;;;;;;;;;5093958;28;20325;-71
2022/06/05 06:04:15;;;;;;;14.60;10.97;;;;;;;;;;5094162;28;20828;-71
2022/06/05 06:06:43;;;;;;;14.27;11.43;;;;;;;;;;5093802;28;20281;-71
2022/06/05 06:09:09;;;;;;;14.57;11.30;;;14.80;99.90;;;;;;5094048;28;20278;-71
2022/06/05 06:11:34;;;;;;;13.60;10.73;;;14.80;99.90;;;;;;5075964;28;20290;-71
2022/06/05 06:14:00;;;;;;;16.50;11.23;;;14.90;99.90;;;;;;5093645;28;20289;-72
2022/06/05 06:16:27;;;;;;;16.10;10.40;;;;;;;;;;5094407;28;20144;-71
2022/06/05 06:18:53;;;;;;;15.27;10.30;;;;;;;;;;5093659;28;20282;-72
2022/06/05 06:21:19;;;;;;;13.70;10.40;;;15.10;99.90;;;;;;5076032;28;20282;-71
2022/06/05 06:23:45;;;;;;;13.97;10.73;;;15.10;99.90;;;;;;5093452;28;20776;-72
2022/06/05 06:26:11;;;;;;;14.83;11.30;;;15.10;99.90;;;;;;5093756;28;20036;-71
2022/06/05 06:28:38;;;;;;;13.80;10.10;;;15.20;99.90;;;;;;5093526;28;20050;-72
2022/06/05 06:31:08;;;;;;;14.57;11.03;;;15.20;99.90;;;;;;5093610;28;20305;-72
2022/06/05 06:33:34;;;;;;;14.20;10.63;;;15.30;99.90;;;;;;5093976;28;20630;-71
2022/06/05 06:36:05;;;;;;;15.80;10.57;;;15.30;99.90;;;;;;5093095;28;20301;-72
2022/06/05 06:38:32;;;;;;;13.87;10.20;;;15.40;99.90;;;;;;5093457;28;20084;-71
2022/06/05 06:41:06;;;;;;;14.27;10.17;;;15.40;99.90;;;;;;5093066;28;20365;-72
2022/06/05 06:43:33;;;;;;;16.05;10.32;;;15.60;99.90;;;;;;5093612;28;20335;-72
2022/06/05 06:45:59;;;;;;;14.57;10.70;;;15.60;99.90;;;;;;5093232;28;20079;-71
2022/06/05 06:48:26;;;;;;;14.63;10.33;;;15.70;99.90;;;;;;5093317;28;20278;-71
2022/06/05 06:50:57;;;;;;;15.10;9.97;;;15.80;99.90;;;;;;5093000;28;20322;-71
2022/06/05 06:53:23;;;;;;;11.27;10.07;;;16.00;99.90;;;;;;5093175;28;20274;-71
2022/06/05 06:55:50;;;;;;;11.73;9.13;;;16.20;99.90;;;;;;5092703;28;20338;-71
2022/06/05 06:58:17;;;;;;;13.97;9.27;;;16.30;99.90;;;;;;5093252;28;20761;-71
2022/06/05 07:00:43;;;;;;;14.30;8.93;;;16.50;99.90;;;;;;5092911;28;20274;-79
2022/06/05 07:03:09;;;;;;;11.70;9.20;;;16.60;99.90;;;;;;5093156;28;20270;-71
2022/06/05 07:05:35;;;;;;;12.70;9.00;;;16.60;99.90;;;;;;5092984;28;20627;-71
2022/06/05 07:08:01;;;;;;;11.60;8.97;;;16.70;99.90;;;;;;5092724;28;20385;-71
2022/06/05 07:10:27;;;;;;;12.47;9.10;;;16.80;99.90;;;;;;5092849;28;20055;-71
2022/06/05 07:12:53;;;;;;;10.77;8.67;;;16.90;99.90;;;;;;5092557;28;20036;-72
2022/06/05 07:15:19;;;;;;;12.27;9.07;;;16.90;99.90;;;;;;5092861;28;20051;-73
2022/06/05 07:17:46;;;;;;;10.97;7.57;;;;;;;;;;5092570;28;20392;-78
2022/06/05 07:20:12;;;;;;;21.47;8.93;;;17.30;99.90;;;;;;5075030;28;20082;-73
2022/06/05 07:22:38;;;;;;;12.37;8.00;;;17.60;99.90;;;;;;5092720;28;20476;-73
2022/06/05 07:25:04;;;;;;;13.53;9.77;;;;;;;;;;5092448;28;20131;-72
2022/06/05 07:27:30;;;;;;;10.43;8.33;;;;;;;;;;5092983;28;20040;-73
2022/06/05 07:29:56;;;;;;;11.47;8.07;;;;;;;;;;5092671;28;20051;-71
2022/06/05 07:32:22;;;;;;;10.90;7.93;;;18.60;99.90;;;;;;5092138;28;20040;-71
2022/06/05 07:34:49;;;;;;;10.60;8.30;;;;;;;;;;5091810;28;20508;-72
2022/06/05 07:37:15;;;;;;;9.97;7.97;;;19.90;99.90;;;;;;5091663;28;20052;-72
2022/06/05 07:39:42;;;;;;;9.70;6.90;;;20.10;99.90;;;;;;5091060;28;20059;-71
2022/06/05 07:42:08;;;;;;;11.60;7.73;;;;;;;;;;5091092;28;20167;-72
2022/06/05 07:44:36;;;;;;;10.37;7.77;;;;;;;;;;5091445;28;20056;-71
2022/06/05 07:47:09;;;;;;;10.03;7.80;;;;;;;;;;5090969;28;20097;-72
2022/06/05 07:49:39;;;;;;;9.60;7.47;;;;;;;;;;5088832;28;20055;-72
2022/06/05 07:54:50;;;;;;;9.10;7.18;;;;;;;;;;5094221;28;20044;-74
2022/06/05 07:57:19;;;;;;;10.07;8.87;;;;;;;;;;5077297;28;20075;-71
2022/06/05 07:59:47;;;;;;;10.50;6.90;;;;;;;;;;5077549;28;20131;-71
2022/06/05 08:02:22;;;;;;;11.43;8.10;;;21.20;98.70;;;;;;5077060;28;20059;-71
2022/06/05 08:04:49;;;;;;;9.60;7.53;;;21.20;98.00;;;;;;5077624;28;20391;-71
2022/06/05 08:07:18;;;;;;;8.33;7.50;;;21.40;97.90;;;;;;5094950;28;20044;-71
2022/06/05 08:09:44;;;;;;;9.87;7.90;;;21.50;97.90;;;;;;5077112;28;20044;-73
2022/06/05 08:12:12;;;;;;;10.83;6.93;;;21.50;96.50;;;;;;5094668;28;20048;-73
2022/06/05 08:14:39;;;;;;;11.33;7.20;;;21.80;99.90;;;;;;5094965;28;20129;-72
2022/06/05 08:17:11;;;;;;;10.23;6.93;;;21.90;97.50;;;;;;5094485;28;20040;-70
2022/06/05 08:19:38;;;;;;;9.27;6.47;;;21.90;96.70;;;;;;5095150;28;20044;-72
2022/06/05 08:22:04;;;;;;;8.97;6.83;;;;;;;;;;5094615;28;20395;-71
2022/06/05 08:24:30;;;;;;;7.70;6.40;;;;;;;;;;5094815;28;20048;-71
2022/06/05 08:26:57;;;;;;;11.00;7.23;;;;;;;;;;5094302;28;20132;-72
2022/06/05 08:29:23;;;;;;;10.23;7.23;;;;;;;;;;5094619;28;20044;-72
2022/06/05 08:31:49;;;;;;;9.37;7.03;;;;;;;;;;5094518;28;20097;-72
2022/06/05 08:34:15;;;;;;;10.03;7.70;;;;;;;;;;5094151;28;20048;-72
2022/06/05 08:36:41;;;;;;;7.47;6.47;;;;;;;;;;5055936;28;1101218;-72
2022/06/05 08:41:52;;;;;;;;;;;;;;;;;;5096228;28;20400;-72
2022/06/05 08:44:37;;;;;;;9.77;6.37;;;;;;;;;;5095193;28;19920;-71
2022/06/05 08:47:18;;;;;;;9.38;7.03;;;;;;;;;;5095734;28;20063;-72
2022/06/05 08:49:59;;;;;;;11.77;7.37;;;20.90;99.90;;;;;;5094890;28;20058;-72
2022/06/05 08:52:50;;;;;;;8.50;7.03;;;21.00;99.10;;;;;;5095024;28;20102;-72
2022/06/05 08:55:40;;;;;;;8.93;6.43;;;21.00;99.90;;;;;;5095420;28;20129;-73
2022/06/05 08:58:32;;;;;;;9.17;6.73;;;21.10;99.90;;;;;;5095267;28;20044;-74
2022/06/05 09:01:08;;;;;;;8.30;6.67;;;21.00;99.90;;;;;;5094984;28;20093;-73
2022/06/05 09:03:43;;;;;;;9.07;6.20;;;21.00;99.90;;;;;;5095393;28;20048;-73
2022/06/05 09:06:17;;;;;;;10.27;7.40;;;21.20;99.90;;;;;;5077102;28;20044;-73
2022/06/05 09:08:45;;;;;;;10.25;6.97;;;21.20;99.90;;;;;;5095279;28;20036;-73
2022/06/05 09:11:42;;;;;;;8.33;6.33;;;21.20;99.80;;;;;;5094480;28;20051;-74
2022/06/05 09:14:11;;;;;;;8.17;6.60;;;21.20;99.90;;;;;;5080142;28;20052;-74
2022/06/05 09:16:47;;;;;;;9.07;6.40;;;21.10;99.90;;;;;;5077334;28;20051;-73
2022/06/05 09:19:17;;;;;;;10.20;6.73;;;21.20;99.90;;;;;;5094856;28;20121;-73
2022/06/05 09:22:03;;;;;;;8.00;6.50;;;21.20;99.90;;;;;;5076880;28;20048;-72
2022/06/05 09:25:00;;;;;;;9.43;6.80;;;21.30;99.90;;;;;;5095206;28;20044;-73
2022/06/05 09:27:47;;;;;;;8.43;6.70;;;21.50;99.70;;;;;;5094910;28;20058;-72
2022/06/05 09:30:48;;;;;;;9.27;6.47;;;21.40;99.10;;;;;;5094401;28;20056;-73
2022/06/05 09:33:17;;;;;;;8.97;5.90;;;;;;;;;;5094527;28;20403;-73
2022/06/05 09:35:45;;;;;;;11.07;7.10;;;;;;;;;;5094824;28;20048;-73
2022/06/05 09:38:24;;;;;;;12.03;6.93;;;21.70;99.90;;;;;;5076063;28;20138;-73
2022/06/05 09:40:54;;;;;;;9.13;6.63;;;21.70;96.30;;;;;;5094699;28;20129;-72
2022/06/05 09:43:44;;;;;;;8.50;6.43;;;21.80;96.50;;;;;;5094274;28;20048;-72
2022/06/05 09:46:19;;;;;;;10.23;6.77;;;21.90;95.20;;;;;;5094222;28;20112;-73
2022/06/05 09:48:54;;;;;;;9.73;6.20;;;;;;;;;;5094259;28;20055;-72
2022/06/05 09:51:21;;;;;;;7.80;6.73;;;;;;;;;;5094282;28;20101;-73
2022/06/05 09:54:13;;;;;;;9.13;7.47;;;;;;;;;;5075339;28;20083;-72
2022/06/05 09:59:49;;;;;;;7.50;5.43;;;;;;;;;;5094568;28;20048;-73
2022/06/05 10:02:16;;;;;;;9.50;6.33;;;;;;;;;;5094201;28;20051;-68
2022/06/05 10:04:43;;;;;;;7.73;6.00;;;;;;;;;;5094168;28;20083;-72
2022/06/05 10:07:25;;;;;;;8.57;6.30;;;;;;;;;;5093757;28;20036;-72
2022/06/05 10:09:51;;;;;;;7.57;6.00;;;;;;;;;;5093518;28;20051;-75
2022/06/05 10:12:24;;;;;;;10.70;6.27;;;;;;;;;;5075478;28;20051;-72
2022/06/05 10:15:04;;;;;;;9.63;6.70;;;;;;;;;;5092769;28;20541;-71
2022/06/05 10:17:45;;;;;;;9.77;6.53;;;;;;;;;;5093783;28;20044;-71
2022/06/05 10:20:17;;;;;;;9.10;6.40;;;;;;;;;;5058586;28;20591;-71
2022/06/05 10:22:47;;;;;;;7.40;5.53;;;;;;;;;;5094198;28;20127;-71
2022/06/05 10:25:27;;;;;;;8.50;6.00;;;;;;;;;;5075415;28;20079;-73
2022/06/05 10:27:55;;;;;;;9.77;6.23;;;;;;;;;;5093548;28;20052;-75
2022/06/05 10:30:26;;;;;;;8.23;6.30;;;;;;;;;;5092569;28;20077;-74
2022/06/05 10:33:00;;;;;;;11.33;7.23;;;;;;;;;;5076150;28;20047;-73
2022/06/05 10:35:30;;;;;;;9.85;5.93;;;;;;;;;;5093201;28;20097;-71
2022/06/05 10:38:00;;;;;;;8.87;6.40;;;;;;;;;;5093619;28;20063;-74
2022/06/05 10:40:50;;;;;;;10.20;6.00;;;;;;;;;;5093154;28;20052;-73
2022/06/05 10:43:22;;;;;;;7.33;5.77;;;;;;;;;;5087448;28;20078;-72
2022/06/05 10:45:48;;;;;;;9.70;6.07;;;;;;;;;;5093639;28;20123;-74
2022/06/05 10:48:59;;;;;;;8.97;6.20;;;22.50;93.20;;;;;;5092753;28;20123;-74
2022/06/05 10:51:41;;;;;;;11.17;6.20;;;22.50;93.60;;;;;;5090936;28;20056;-74
2022/06/05 10:54:07;;;;;;;7.47;5.73;;;22.50;93.10;;;;;;5093342;28;20051;-73
2022/06/05 10:57:15;;;;;;;7.70;5.83;;;22.50;93.30;;;;;;5092907;28;20044;-74
2022/06/05 11:00:24;;;;;;;7.37;5.80;;;22.50;94.30;;;;;;5069660;28;20051;-74
2022/06/05 11:03:18;;;;;;;9.17;6.27;;;22.40;93.50;;;;;;5050526;28;20088;-74
2022/06/05 11:06:08;;;;;;;8.90;6.30;;;22.40;94.40;;;;;;5050592;28;20053;-74
2022/06/05 11:08:49;;;;;;;11.83;5.67;;;22.50;95.40;;;;;;5086662;28;20225;-74
2022/06/05 11:14:11;;;;;;;8.97;6.53;;;22.50;95.30;;;;;;5084163;28;20055;-73
2022/06/05 11:16:55;;;;;;;12.03;6.00;;;22.50;95.20;;;;;;5080418;28;20080;-75
2022/06/05 11:19:58;;;;;;;7.00;5.90;;;22.60;94.30;;;;;;5072819;28;20052;-73
2022/06/05 11:22:26;;;;;;;7.87;6.23;;;22.60;93.90;;;;;;5048013;28;20162;-74
2022/06/05 11:24:57;;;;;;;8.00;5.83;;;22.60;94.50;;;;;;5063611;28;20062;-75
2022/06/05 11:27:32;;;;;;;7.97;6.27;;;22.50;95.40;;;;;;5063364;28;20251;-73
2022/06/05 11:30:19;;;;;;;6.57;5.43;;;22.50;96.10;;;;;;5063919;28;20059;-74
2022/06/05 11:33:23;;;;;;;6.93;5.50;;;22.50;96.50;;;;;;5066836;28;20098;-74
2022/06/05 11:36:13;;;;;;;8.00;6.40;;;22.60;95.80;;;;;;5067476;28;20109;-73
2022/06/05 11:39:03;;;;;;;9.23;5.90;;;22.60;94.70;;;;;;5065143;28;20064;-73
2022/06/05 11:41:55;;;;;;;8.07;5.17;;;22.60;94.40;;;;;;5067274;28;20044;-72
2022/06/05 11:44:29;;;;;;;10.00;5.87;;;22.50;95.20;;;;;;5066088;28;20525;-72
2022/06/05 11:47:02;;;;;;;9.57;6.03;;;22.50;95.60;;;;;;5066738;28;20511;-73
2022/06/05 11:49:51;;;;;;;8.60;5.37;;;22.60;95.70;;;;;;5076862;28;20052;-72
2022/06/05 11:52:29;;;;;;;7.53;5.93;;;22.60;95.20;;;;;;5086852;28;20759;-72
2022/06/05 11:55:13;;;;;;;9.13;5.53;;;22.60;94.90;;;;;;5087786;28;20097;-72
2022/06/05 11:58:01;;;;;;;8.80;5.87;;;22.60;95.40;;;;;;5086417;28;20052;-73
2022/06/05 12:00:30;;;;;;;8.20;5.40;;;22.60;95.30;;;;;;5085414;28;20180;-73
2022/06/05 12:02:59;;;;;;;8.57;5.70;;;22.70;95.40;;;;;;5086068;28;20070;-73
2022/06/05 12:05:31;;;;;;;6.73;5.90;;;22.60;96.20;;;;;;5068919;28;20139;-73
2022/06/05 12:08:20;;;;;;;6.50;5.37;;;22.70;95.40;;;;;;5086786;28;20109;-72
2022/06/05 12:11:04;;;;;;;7.10;5.47;;;22.80;94.60;;;;;;5086295;28;20109;-72
2022/06/05 12:13:51;;;;;;;8.55;5.63;;;22.80;95.00;;;;;;5086883;28;20048;-73
2022/06/05 12:16:48;;;;;;;7.47;5.40;;;22.90;94.20;;;;;;5073527;28;20044;-74
2022/06/05 12:19:25;;;;;;;7.07;5.07;;;22.80;94.40;;;;;;5064919;28;20044;-77
2022/06/05 12:22:14;;;;;;;8.20;5.53;;;22.90;95.00;;;;;;5066731;28;20044;-76
2022/06/05 12:24:47;;;;;;;7.67;5.40;;;22.90;95.90;;;;;;5048604;28;20053;-73
2022/06/05 12:27:16;;;;;;;7.60;5.53;;;22.90;99.90;;;;;;5066012;28;20041;-72
2022/06/05 12:30:05;;;;;;;7.70;5.37;;;23.00;99.80;;;;;;5078280;28;20546;-71
2022/06/05 12:32:40;;;;;;;7.43;5.20;;;23.00;99.90;;;;;;5086416;28;20044;-70
2022/06/05 12:35:15;;;;;;;6.70;5.33;;;23.10;94.70;;;;;;5087362;28;20084;-72
2022/06/05 12:37:45;;;;;;;9.03;5.23;;;23.10;93.80;;;;;;5088516;28;20221;-71
2022/06/05 12:40:18;;;;;;;7.73;4.67;;;23.10;92.60;;;;;;5070516;28;20044;-72
2022/06/05 12:42:54;;;;;;;9.43;5.87;;;23.00;94.30;;;;;;5088967;28;20147;-73
2022/06/05 12:45:25;;;;;;;7.17;4.87;;;23.10;94.50;;;;;;5090521;28;20101;-72
2022/06/05 12:48:11;;;;;;;11.13;5.33;;;23.10;94.50;;;;;;5089983;28;20442;-72
2022/06/05 12:50:57;;;;;;;8.03;5.20;;;23.10;94.10;;;;;;5090442;28;20127;-72
2022/06/05 12:53:31;;;;;;;;;;;23.10;93.90;;;;;;5089765;28;20622;-72
2022/06/05 12:56:28;;;;;;;7.50;5.07;;;23.10;93.80;;;;;;5089584;28;19972;-72
2022/06/05 12:59:19;;;;;;;7.10;4.70;;;23.10;93.80;;;;;;5072132;28;20059;-75
2022/06/05 13:01:58;;;;;;;9.73;4.80;;;23.10;93.80;;;;;;5089497;28;20044;-72
2022/06/05 13:04:52;;;;;;;6.67;4.80;;;23.20;93.70;;;;;;5088552;28;20040;-71
2022/06/05 13:07:31;;;;;;;8.57;5.33;;;23.20;93.50;;;;;;5089668;28;20127;-71
2022/06/05 13:10:23;;;;;;;7.93;5.17;;;23.30;92.40;;;;;;5087400;28;20076;-72
2022/06/05 13:13:05;;;;;;;8.53;4.57;;;23.20;93.00;;;;;;5088341;28;20055;-74
2022/06/05 13:15:38;;;;;;;5.77;4.60;;;23.20;93.40;;;;;;5089294;28;20047;-72
2022/06/05 13:18:06;;;;;;;6.43;4.93;;;23.20;93.60;;;;;;5088041;28;20357;-75
2022/06/05 13:20:38;;;;;;;7.37;4.90;;;23.30;93.20;;;;;;5089289;28;20044;-71
2022/06/05 13:23:20;;;;;;;6.37;4.17;;;23.30;93.50;;;;;;5089749;28;20075;-73
2022/06/05 13:26:03;;;;;;;9.23;4.50;;;23.30;93.90;;;;;;5089055;28;20063;-73
2022/06/05 13:28:32;;;;;;;6.37;4.80;;;23.20;93.50;;;;;;5086755;28;20106;-72
2022/06/05 13:31:06;;;;;;;7.10;4.93;;;23.30;93.40;;;;;;5089017;28;20052;-71
2022/06/05 13:33:41;;;;;;;8.50;5.00;;;23.30;93.50;;;;;;5088452;28;20063;-72
2022/06/05 13:36:21;;;;;;;5.90;5.13;;;23.30;93.10;;;;;;5088485;28;20059;-75
2022/06/05 13:38:58;;;;;;;6.97;4.90;;;23.30;93.30;;;;;;5086287;28;20059;-71
2022/06/05 13:41:31;;;;;;;6.63;5.10;;;23.30;92.60;;;;;;5054437;28;20191;-71
2022/06/05 13:44:09;;;;;;;6.33;4.60;;;23.30;91.70;;;;;;5088558;28;20503;-71
2022/06/05 13:47:01;;;;;;;8.27;5.27;;;23.30;90.70;;;;;;5087972;28;20479;-72
2022/06/05 13:50:12;;;;;;;8.07;5.30;;;23.30;90.80;;;;;;5085831;28;20055;-75